createdAt,value
2022-10-01T00:03:35.435Z,100013.47
2022-10-01T00:07:41.528Z,100000.09
2022-10-01T00:11:43.266Z,99983.81
2022-10-01T00:15:44.963Z,99943.06
2022-10-01T00:19:46.647Z,99960.75
2022-10-01T00:23:53.417Z,99948.03
2022-10-01T00:27:55.685Z,99939.00
2022-10-01T00:31:58.034Z,99940.66
2022-10-01T00:35:59.790Z,99938.63
2022-10-01T00:40:01.821Z,99936.13
2022-10-01T00:44:26.848Z,99916.78
2022-10-01T00:48:31.063Z,99879.38
2022-10-01T00:52:36.236Z,99878.56
2022-10-01T00:56:38.646Z,99872.38
2022-10-01T01:00:42.468Z,99867.03
2022-10-01T01:04:44.907Z,99879.19
2022-10-01T01:08:46.651Z,99873.22
2022-10-01T01:13:07.013Z,99872.56
2022-10-01T01:17:23.473Z,99873.22
2022-10-01T01:21:42.695Z,99858.22
2022-10-01T01:26:16.645Z,99866.22
2022-10-01T01:30:19.177Z,99846.66
2022-10-01T01:34:26.448Z,99854.50
2022-10-01T01:38:32.761Z,99848.13
2022-10-01T01:42:37.782Z,99848.97
2022-10-01T01:46:44.698Z,99849.59
2022-10-01T01:51:09.799Z,99849.03
2022-10-01T01:55:11.747Z,99849.47
2022-10-01T01:59:13.889Z,99846.19
2022-10-01T02:03:15.567Z,99856.88
2022-10-01T02:07:26.193Z,99848.50
2022-10-01T02:11:38.322Z,99852.00
2022-10-01T02:15:45.852Z,99831.88
2022-10-01T02:20:07.599Z,99829.63
2022-10-01T02:24:14.460Z,99830.44
2022-10-01T02:28:21.088Z,99833.94
2022-10-01T02:32:24.213Z,99838.09
2022-10-01T02:36:27.710Z,99827.81
2022-10-01T02:40:32.549Z,99833.81
2022-10-01T02:44:40.207Z,99827.06
2022-10-01T02:48:42.355Z,99822.97
2022-10-01T02:53:05.771Z,99825.44
2022-10-01T02:57:27.694Z,99820.53
2022-10-01T03:01:29.910Z,99820.13
2022-10-01T03:05:31.657Z,99808.00
2022-10-01T03:09:34.839Z,99823.69
2022-10-01T03:13:36.841Z,99817.94
2022-10-01T03:17:38.559Z,99813.84
2022-10-01T03:21:40.299Z,99798.41
2022-10-01T03:25:41.995Z,99798.00
2022-10-01T03:29:44.642Z,99805.44
2022-10-01T03:33:46.414Z,99799.69
2022-10-01T03:37:48.066Z,99812.53
2022-10-01T03:41:50.120Z,99814.59
2022-10-01T03:45:51.835Z,99809.69
2022-10-01T03:49:53.573Z,99834.19
2022-10-01T03:53:56.663Z,99840.78
2022-10-01T03:57:58.752Z,99840.19
2022-10-01T04:02:00.521Z,99849.69
2022-10-01T04:06:02.383Z,99855.47
2022-10-01T04:10:04.375Z,99869.06
2022-10-01T04:14:06.105Z,99871.13
2022-10-01T04:18:09.062Z,99868.72
2022-10-01T04:22:10.768Z,99872.41
2022-10-01T04:26:12.586Z,99892.63
2022-10-01T04:30:14.213Z,99894.28
2022-10-01T04:34:15.887Z,99897.59
2022-10-01T04:38:17.576Z,99903.78
2022-10-01T04:42:19.695Z,99902.09
2022-10-01T04:46:21.349Z,99911.16
2022-10-01T04:50:24.840Z,99909.09
2022-10-01T04:54:26.856Z,99914.03
2022-10-01T04:58:28.526Z,99936.88
2022-10-01T05:02:30.334Z,99936.22
2022-10-01T05:06:32.049Z,99939.31
2022-10-01T05:10:34.029Z,99946.06
2022-10-01T05:14:35.677Z,99959.66
2022-10-01T05:18:37.466Z,99956.75
2022-10-01T05:22:39.243Z,99970.31
2022-10-01T05:26:40.999Z,99973.38
2022-10-01T05:30:43.155Z,99979.78
2022-10-01T05:34:46.364Z,99992.56
2022-10-01T05:38:52.439Z,99991.91
2022-10-01T05:42:58.519Z,100003.63
2022-10-01T05:47:00.293Z,100005.66
2022-10-01T05:51:04.300Z,100010.19
2022-10-01T05:55:06.154Z,100012.69
2022-10-01T05:59:07.999Z,100011.47
2022-10-01T06:03:12.910Z,100011.91
2022-10-01T06:07:14.768Z,100020.56
2022-10-01T06:11:17.146Z,100016.66
2022-10-01T06:15:19.018Z,100019.38
2022-10-01T06:19:20.737Z,100031.63
2022-10-01T06:23:22.582Z,100041.13
2022-10-01T06:27:24.244Z,100044.69
2022-10-01T06:31:26.000Z,100052.53
2022-10-01T06:35:27.722Z,100051.50
2022-10-01T06:39:29.358Z,100052.34
2022-10-01T06:43:32.332Z,100055.63
2022-10-01T06:47:34.031Z,100055.44
2022-10-01T06:51:54.257Z,100048.03
2022-10-01T06:55:56.244Z,100050.72
2022-10-01T06:59:58.537Z,100056.28
2022-10-01T07:04:00.372Z,100068.25
2022-10-01T07:08:02.154Z,100071.78
2022-10-01T07:12:03.938Z,100087.75
2022-10-01T07:16:06.056Z,100103.72
2022-10-01T07:20:08.445Z,100099.81
2022-10-01T07:24:10.110Z,100098.13
2022-10-01T07:28:18.435Z,100111.75
2022-10-01T07:32:21.238Z,100110.31
2022-10-01T07:36:22.899Z,100111.97
2022-10-01T07:40:24.644Z,100118.78
2022-10-01T07:44:29.586Z,100117.59
2022-10-01T07:48:31.254Z,100124.81
2022-10-01T07:52:32.966Z,100123.38
2022-10-01T07:56:34.736Z,100138.53
2022-10-01T08:00:36.448Z,100146.03
2022-10-01T08:04:56.802Z,100147.50
2022-10-01T08:08:58.499Z,100160.34
2022-10-01T08:13:13.451Z,100158.94
2022-10-01T08:17:15.173Z,100178.81
2022-10-01T08:21:16.821Z,100177.56
2022-10-01T08:25:18.542Z,100175.72
2022-10-01T08:29:20.522Z,100183.19
2022-10-01T08:33:23.201Z,100187.94
2022-10-01T08:37:29.326Z,100199.94
2022-10-01T08:41:49.702Z,100207.38
2022-10-01T08:45:54.376Z,100208.38
2022-10-01T08:50:03.814Z,100214.59
2022-10-01T08:54:15.350Z,100226.78
2022-10-01T08:58:27.052Z,100227.00
2022-10-01T09:02:42.875Z,100229.69
2022-10-01T09:06:52.164Z,100240.94
2022-10-01T09:11:01.365Z,100252.72
2022-10-01T09:15:29.682Z,100255.63
2022-10-01T09:19:58.988Z,100265.13
2022-10-01T09:24:09.484Z,100275.22
2022-10-01T09:28:27.820Z,100272.34
2022-10-01T09:32:39.360Z,100288.69
2022-10-01T09:37:05.675Z,100289.53
2022-10-01T09:41:11.823Z,100308.56
2022-10-01T09:45:18.775Z,100297.41
2022-10-01T09:49:45.745Z,100315.16
2022-10-01T09:54:28.913Z,100319.31
2022-10-01T09:58:34.948Z,100313.13
2022-10-01T10:02:49.304Z,100334.63
2022-10-01T10:06:59.628Z,100329.03
2022-10-01T10:11:10.671Z,100340.84
2022-10-01T10:15:19.326Z,100347.06
2022-10-01T10:19:27.502Z,100370.44
2022-10-01T10:23:32.222Z,100363.38
2022-10-01T10:27:34.007Z,100381.59
2022-10-01T10:31:44.856Z,100387.81
2022-10-01T10:35:47.021Z,100382.63
2022-10-01T10:39:52.755Z,100391.53
2022-10-01T10:43:59.318Z,100397.53
2022-10-01T10:48:04.718Z,100407.69
2022-10-01T10:52:37.307Z,100413.03
2022-10-01T10:56:39.354Z,100426.91
2022-10-01T11:00:48.307Z,100422.34
2022-10-01T11:04:50.648Z,100431.88
2022-10-01T11:09:10.715Z,100446.41
2022-10-01T11:13:25.506Z,100453.03
2022-10-01T11:17:44.877Z,100448.47
2022-10-01T11:22:06.283Z,100470.84
2022-10-01T11:26:40.682Z,100482.22
2022-10-01T11:31:03.671Z,100491.53
2022-10-01T11:35:37.313Z,100506.03
2022-10-01T11:39:43.126Z,100508.94
2022-10-01T11:44:01.568Z,100507.28
2022-10-01T11:48:41.187Z,100527.94
2022-10-01T11:53:04.427Z,100531.69
2022-10-01T11:57:32.604Z,100538.94
2022-10-01T12:01:49.837Z,100534.66
2022-10-01T12:05:53.035Z,100533.63
2022-10-01T12:10:14.655Z,100552.03
2022-10-01T12:14:20.741Z,100544.97
2022-10-01T12:18:33.165Z,100554.47
2022-10-01T12:22:39.125Z,100559.47
2022-10-01T12:26:46.780Z,100559.97
2022-10-01T12:31:02.309Z,100555.81
2022-10-01T12:35:41.182Z,100566.97
2022-10-01T12:39:51.862Z,100566.19
2022-10-01T12:44:39.455Z,100582.34
2022-10-01T12:49:08.590Z,100568.00
2022-10-01T12:53:32.291Z,100592.06
2022-10-01T12:58:01.269Z,100586.88
2022-10-01T13:02:24.442Z,100596.19
2022-10-01T13:07:05.340Z,100605.56
2022-10-01T13:11:52.425Z,100605.97
2022-10-01T13:16:03.268Z,100621.50
2022-10-01T13:20:27.508Z,100620.03
2022-10-01T13:24:48.142Z,100627.50
2022-10-01T13:29:06.060Z,100636.00
2022-10-01T13:33:36.236Z,100645.53
2022-10-01T13:37:39.944Z,100654.06
2022-10-01T13:41:42.428Z,100665.25
2022-10-01T13:45:47.153Z,100654.03
2022-10-01T13:50:05.406Z,100667.94
2022-10-01T13:54:22.772Z,100673.13
2022-10-01T13:58:32.035Z,100682.66
2022-10-01T14:02:42.297Z,100690.31
2022-10-01T14:06:51.072Z,100704.81
2022-10-01T14:11:20.743Z,100696.97
2022-10-01T14:15:40.573Z,100704.84
2022-10-01T14:19:52.793Z,100710.03
2022-10-01T14:24:02.829Z,100723.09
2022-10-01T14:28:38.288Z,100730.78
2022-10-01T14:33:05.713Z,100738.66
2022-10-01T14:37:16.232Z,100747.34
2022-10-01T14:41:23.468Z,100733.91
2022-10-01T14:45:25.378Z,100740.34
2022-10-01T14:49:32.483Z,100750.50
2022-10-01T14:53:37.247Z,100752.75
2022-10-01T14:57:43.059Z,100746.72
2022-10-01T15:02:00.295Z,100754.63
2022-10-01T15:06:04.605Z,100753.97
2022-10-01T15:10:08.203Z,100755.84
2022-10-01T15:14:19.264Z,100763.09
2022-10-01T15:18:22.309Z,100756.25
2022-10-01T15:22:28.739Z,100763.06
2022-10-01T15:26:32.775Z,100769.44
2022-10-01T15:30:36.942Z,100777.91
2022-10-01T15:34:41.647Z,100782.44
2022-10-01T15:38:46.068Z,100788.22
2022-10-01T15:43:07.687Z,100804.16
2022-10-01T15:47:31.139Z,100803.47
2022-10-01T15:51:33.030Z,100815.91
2022-10-01T15:55:49.561Z,100809.69
2022-10-01T15:59:54.678Z,100806.38
2022-10-01T16:04:05.284Z,100803.03
2022-10-01T16:08:07.016Z,100823.75
2022-10-01T16:12:11.719Z,100831.34
2022-10-01T16:16:13.410Z,100830.91
2022-10-01T16:20:15.031Z,100838.09
2022-10-01T16:24:29.761Z,100835.78
2022-10-01T16:28:35.946Z,100847.59
2022-10-01T16:32:37.937Z,100846.28
2022-10-01T16:36:39.794Z,100853.31
2022-10-01T16:40:44.682Z,100856.31
2022-10-01T16:44:46.467Z,100860.19
2022-10-01T16:48:51.535Z,100866.53
2022-10-01T16:52:55.519Z,100868.31
2022-10-01T16:56:59.287Z,100877.81
2022-10-01T17:01:06.784Z,100871.16
2022-10-01T17:05:25.321Z,100876.91
2022-10-01T17:09:27.009Z,100882.28
2022-10-01T17:13:34.046Z,100889.69
2022-10-01T17:17:35.694Z,100884.72
2022-10-01T17:21:37.357Z,100886.75
2022-10-01T17:25:40.207Z,100902.06
2022-10-01T17:29:41.942Z,100908.84
2022-10-01T17:33:43.761Z,100917.28
2022-10-01T17:37:45.413Z,100931.09
2022-10-01T17:41:47.270Z,100937.88
2022-10-01T17:45:56.723Z,100937.38
2022-10-01T17:49:58.691Z,100937.75
2022-10-01T17:54:02.580Z,100955.94
2022-10-01T17:58:04.277Z,100952.59
2022-10-01T18:02:18.837Z,100958.16
2022-10-01T18:06:29.666Z,100964.13
2022-10-01T18:10:31.332Z,100969.03
2022-10-01T18:14:33.082Z,100979.31
2022-10-01T18:22:56.686Z,100983.56
2022-10-01T18:26:58.380Z,100993.69
2022-10-01T18:31:18.823Z,100994.41
2022-10-01T18:35:31.966Z,101002.00
2022-10-01T18:39:40.103Z,101013.31
2022-10-01T18:43:42.927Z,101015.31
2022-10-01T18:48:17.034Z,101020.69
2022-10-01T18:52:49.613Z,101021.06
2022-10-01T18:57:17.532Z,101020.59
2022-10-01T19:02:01.021Z,101024.50
2022-10-01T19:06:11.776Z,101029.19
2022-10-01T19:10:40.327Z,101025.06
2022-10-01T19:15:00.970Z,101033.63
2022-10-01T19:19:44.360Z,101051.13
2022-10-01T19:23:58.153Z,101050.50
2022-10-01T19:28:18.438Z,101055.03
2022-10-01T19:32:23.931Z,101068.63
2022-10-01T19:36:34.790Z,101061.94
2022-10-01T19:40:46.350Z,101074.69
2022-10-01T19:45:09.209Z,101076.06
2022-10-01T19:49:25.608Z,101072.91
2022-10-01T19:53:32.124Z,101088.38
2022-10-01T19:57:44.330Z,101091.06
2022-10-01T20:01:54.252Z,101095.25
2022-10-01T20:06:37.731Z,101095.88
2022-10-01T20:10:47.214Z,101098.75
2022-10-01T20:15:10.635Z,101106.00
2022-10-01T20:19:41.201Z,101112.34
2022-10-01T20:23:52.393Z,101122.44
2022-10-01T20:28:33.699Z,101127.81
2022-10-01T20:33:04.738Z,101131.47
2022-10-01T20:37:08.483Z,101141.22
2022-10-01T20:41:16.532Z,101135.38
2022-10-01T20:45:29.988Z,101146.47
2022-10-01T20:49:38.802Z,101146.81
2022-10-01T20:53:46.657Z,101145.31
2022-10-01T20:57:53.498Z,101147.34
2022-10-01T21:02:02.589Z,101148.03
2022-10-01T21:06:13.781Z,101148.41
2022-10-01T21:10:34.710Z,101154.13
2022-10-01T21:14:46.366Z,101145.75
2022-10-01T21:19:10.227Z,101146.09
2022-10-01T21:23:33.350Z,101145.47
2022-10-01T21:28:06.501Z,101145.47
2022-10-01T21:32:20.243Z,101140.09
2022-10-01T21:37:00.518Z,101149.97
2022-10-01T21:41:13.390Z,101153.50
2022-10-01T21:45:33.514Z,101154.16
2022-10-01T21:49:53.494Z,101159.19
2022-10-01T21:54:18.563Z,101178.28
2022-10-01T21:59:04.674Z,101188.28
2022-10-01T22:03:19.776Z,101181.22
2022-10-01T22:07:24.170Z,101185.91
2022-10-01T22:11:39.823Z,101188.88
2022-10-01T22:15:44.574Z,101182.81
2022-10-01T22:19:50.787Z,101190.69
2022-10-01T22:24:03.944Z,101202.25
2022-10-01T22:28:16.665Z,101207.47
2022-10-01T22:32:24.516Z,101203.94
2022-10-01T22:36:54.924Z,101208.63
2022-10-01T22:41:08.378Z,101205.81
2022-10-01T22:45:15.621Z,101212.91
2022-10-01T22:49:23.262Z,101216.44
2022-10-01T22:53:53.570Z,101217.03
2022-10-01T22:58:04.945Z,101225.59
2022-10-01T23:02:31.539Z,101225.22
2022-10-01T23:06:43.766Z,101223.41
2022-10-01T23:11:06.011Z,101214.91
2022-10-01T23:15:52.540Z,101229.19
2022-10-01T23:20:23.132Z,101232.03
2022-10-01T23:24:50.845Z,101232.72
2022-10-01T23:29:13.223Z,101236.91
2022-10-01T23:33:26.949Z,101236.38
2022-10-01T23:37:45.450Z,101233.88
2022-10-01T23:41:53.818Z,101243.06
2022-10-01T23:46:20.403Z,101244.38
2022-10-01T23:50:30.917Z,101245.72
2022-10-01T23:54:47.410Z,101266.50
2022-10-01T23:59:14.149Z,101257.28
